PWSweather.com
Personal Weather Stations
Station Observations
TERNAARD
Friesland, TernaardNL

FrieslandTernaardNL

Lat: 53.380557, Lon: 5.969774

Elevation: 3

Station Type: Davis Vantage Pro-2

www.weerstation-ternaard.nl

High Low Average
Temperature 43.3°F6.3°C 39.5°F4.2°C 41.4°F5.2°C
Dew Point 40.6°F4.8°C 37.0°F2.8°C 38.9°F3.8°C
Winds 10.3 mph 16.6 kmh 1.1 mph 1.8 kmh 6.0 mph WSW9.7 kmh WSW
Wind Gusts 16.1 mph25.9 kmh 3.4 mph5.5 kmh 9.0 mph14.5 kmh
Humidity 94% 85% 91%
Pressure 29.44 in997.0 mb 29.36 in994.2 mb -
Precipitation 0.24 in6.1 mm - -
Hour Temp Dew Point Humidity Winds Wind Gusts Pressure Precip Precip Rate Daily Precip Total
12:03 AM 42.1°F5.6°C 40.2°F4.6°C 93% 6.9 mph WSW11.1 kmh WSW 11.5 mph18.5 kmh 29.42 in996.3 mb - 0.00 in0.0 mm 0.00 in0.0 mm
12:09 AM 42.1°F5.6°C 40.2°F4.6°C 93% 6.9 mph WSW11.1 kmh WSW 6.9 mph11.1 kmh 29.42 in996.3 mb - 0.00 in0.0 mm 0.00 in0.0 mm
12:15 AM 42.1°F5.6°C 40.2°F4.6°C 93% 6.9 mph WSW11.1 kmh WSW 11.5 mph18.5 kmh 29.43 in996.6 mb - 0.00 in0.0 mm 0.00 in0.0 mm
12:20 AM 42.1°F5.6°C 40.3°F4.6°C 93% 6.9 mph WSW11.1 kmh WSW 10.3 mph16.6 kmh 29.43 in996.6 mb - 0.00 in0.0 mm 0.00 in0.0 mm
12:26 AM 42.1°F5.6°C 40.2°F4.6°C 93% 5.8 mph WSW9.3 kmh WSW 10.3 mph16.6 kmh 29.43 in996.6 mb - 0.00 in0.0 mm 0.00 in0.0 mm
12:31 AM 42.2°F5.7°C 40.3°F4.6°C 93% 8.0 mph WSW12.9 kmh WSW 14.9 mph24.0 kmh 29.42 in996.3 mb - 0.00 in0.0 mm 0.00 in0.0 mm
12:37 AM 42.5°F5.8°C 40.6°F4.8°C 93% 5.8 mph WSW9.3 kmh WSW 9.2 mph14.8 kmh 29.43 in996.6 mb - 0.00 in0.0 mm 0.00 in0.0 mm
12:43 AM 42.5°F5.8°C 40.6°F4.8°C 93% 4.6 mph WSW7.4 kmh WSW 4.6 mph7.4 kmh 29.43 in996.6 mb - 0.00 in0.0 mm 0.00 in0.0 mm
12:48 AM 42.4°F5.8°C 40.5°F4.7°C 93% 8.0 mph W12.9 kmh W 10.3 mph16.6 kmh 29.43 in996.6 mb - 0.02 in0.5 mm 0.02 in0.5 mm
12:54 AM 42.3°F5.7°C 40.4°F4.7°C 93% 3.4 mph WNW5.5 kmh WNW 6.9 mph11.1 kmh 29.43 in996.6 mb - 0.02 in0.5 mm 0.02 in0.5 mm
01:00 AM 42.3°F5.7°C 40.4°F4.7°C 93% 3.4 mph WSW5.5 kmh WSW 6.9 mph11.1 kmh 29.42 in996.3 mb - 0.02 in0.5 mm 0.02 in0.5 mm
01:05 AM 42.3°F5.7°C 40.4°F4.7°C 93% 5.8 mph W9.3 kmh W 6.9 mph11.1 kmh 29.43 in996.6 mb - 0.02 in0.5 mm 0.02 in0.5 mm
01:11 AM 42.4°F5.8°C 40.6°F4.8°C 93% 8.0 mph WSW12.9 kmh WSW 12.6 mph20.3 kmh 29.43 in996.6 mb - 0.02 in0.5 mm 0.02 in0.5 mm
01:16 AM 42.4°F5.8°C 40.5°F4.7°C 93% 9.2 mph SW14.8 kmh SW 13.8 mph22.2 kmh 29.43 in996.6 mb - 0.02 in0.5 mm 0.02 in0.5 mm
01:22 AM 42.4°F5.8°C 40.5°F4.7°C 93% 5.8 mph WSW9.3 kmh WSW 6.9 mph11.1 kmh 29.43 in996.6 mb - 0.02 in0.5 mm 0.02 in0.5 mm
01:28 AM 42.2°F5.7°C 40.4°F4.7°C 93% 8.0 mph WSW12.9 kmh WSW 10.3 mph16.6 kmh 29.43 in996.6 mb - 0.02 in0.5 mm 0.02 in0.5 mm
01:33 AM 42.2°F5.7°C 40.3°F4.6°C 93% 6.9 mph WSW11.1 kmh WSW 10.3 mph16.6 kmh 29.43 in996.6 mb - 0.02 in0.5 mm 0.02 in0.5 mm
01:39 AM 42.2°F5.7°C 40.3°F4.6°C 93% 6.9 mph SW11.1 kmh SW 6.9 mph11.1 kmh 29.43 in996.6 mb - 0.02 in0.5 mm 0.02 in0.5 mm
01:45 AM 42.2°F5.7°C 40.3°F4.6°C 93% 5.8 mph WSW9.3 kmh WSW 5.8 mph9.3 kmh 29.42 in996.3 mb - 0.02 in0.5 mm 0.02 in0.5 mm
01:50 AM 42.1°F5.6°C 40.3°F4.6°C 93% 5.8 mph WSW9.3 kmh WSW 8.0 mph12.9 kmh 29.42 in996.3 mb - 0.02 in0.5 mm 0.02 in0.5 mm
01:56 AM 42.0°F5.6°C 40.2°F4.6°C 93% 4.6 mph WSW7.4 kmh WSW 6.9 mph11.1 kmh 29.42 in996.3 mb - 0.02 in0.5 mm 0.02 in0.5 mm
02:01 AM 41.9°F5.5°C 40.1°F4.5°C 93% 5.8 mph W9.3 kmh W 8.0 mph12.9 kmh 29.42 in996.3 mb - 0.02 in0.5 mm 0.02 in0.5 mm
02:07 AM 42.0°F5.6°C 40.1°F4.5°C 93% 6.9 mph WSW11.1 kmh WSW 11.5 mph18.5 kmh 29.42 in996.3 mb - 0.02 in0.5 mm 0.02 in0.5 mm
02:13 AM 42.0°F5.6°C 40.1°F4.5°C 93% 5.8 mph W9.3 kmh W 11.5 mph18.5 kmh 29.42 in996.3 mb - 0.02 in0.5 mm 0.02 in0.5 mm
02:18 AM 42.1°F5.6°C 40.2°F4.6°C 93% 5.8 mph WSW9.3 kmh WSW 9.2 mph14.8 kmh 29.42 in996.3 mb - 0.02 in0.5 mm 0.02 in0.5 mm
02:24 AM 42.2°F5.7°C 40.3°F4.6°C 93% 8.0 mph WSW12.9 kmh WSW 13.8 mph22.2 kmh 29.42 in996.3 mb - 0.02 in0.5 mm 0.02 in0.5 mm
02:30 AM 42.3°F5.7°C 40.4°F4.7°C 93% 4.6 mph W7.4 kmh W 9.2 mph14.8 kmh 29.42 in996.3 mb - 0.02 in0.5 mm 0.02 in0.5 mm
02:35 AM 42.3°F5.7°C 40.4°F4.7°C 93% 4.6 mph SW7.4 kmh SW 10.3 mph16.6 kmh 29.42 in996.3 mb - 0.02 in0.5 mm 0.02 in0.5 mm
02:41 AM 42.5°F5.8°C 40.6°F4.8°C 93% 4.6 mph WSW7.4 kmh WSW 9.2 mph14.8 kmh 29.42 in996.3 mb - 0.02 in0.5 mm 0.02 in0.5 mm
02:46 AM 42.5°F5.8°C 40.6°F4.8°C 93% 5.8 mph W9.3 kmh W 8.0 mph12.9 kmh 29.42 in996.3 mb - 0.02 in0.5 mm 0.02 in0.5 mm
02:52 AM 42.5°F5.8°C 40.6°F4.8°C 93% 4.6 mph WSW7.4 kmh WSW 8.0 mph12.9 kmh 29.42 in996.3 mb - 0.02 in0.5 mm 0.02 in0.5 mm
02:58 AM 42.4°F5.8°C 40.5°F4.7°C 93% 5.8 mph WSW9.3 kmh WSW 11.5 mph18.5 kmh 29.42 in996.3 mb - 0.02 in0.5 mm 0.02 in0.5 mm
03:03 AM 42.4°F5.8°C 40.5°F4.7°C 93% 5.8 mph W9.3 kmh W 9.2 mph14.8 kmh 29.43 in996.6 mb - 0.02 in0.5 mm 0.02 in0.5 mm
03:09 AM 42.3°F5.7°C 40.5°F4.7°C 93% 6.9 mph W11.1 kmh W 10.3 mph16.6 kmh 29.43 in996.6 mb - 0.02 in0.5 mm 0.02 in0.5 mm
03:15 AM 42.3°F5.7°C 40.5°F4.7°C 93% 5.8 mph W9.3 kmh W 8.0 mph12.9 kmh 29.43 in996.6 mb - 0.02 in0.5 mm 0.02 in0.5 mm
03:20 AM 42.2°F5.7°C 40.4°F4.7°C 93% 4.6 mph W7.4 kmh W 5.8 mph9.3 kmh 29.43 in996.6 mb - 0.02 in0.5 mm 0.02 in0.5 mm
03:26 AM 42.2°F5.7°C 40.3°F4.6°C 93% 6.9 mph WSW11.1 kmh WSW 11.5 mph18.5 kmh 29.43 in996.6 mb - 0.03 in0.8 mm 0.03 in0.8 mm
03:31 AM 42.1°F5.6°C 40.2°F4.6°C 93% 5.8 mph WNW9.3 kmh WNW 10.3 mph16.6 kmh 29.43 in996.6 mb - 0.03 in0.8 mm 0.03 in0.8 mm
03:37 AM 42.0°F5.6°C 40.1°F4.5°C 93% 6.9 mph W11.1 kmh W 10.3 mph16.6 kmh 29.42 in996.3 mb - 0.04 in1.0 mm 0.04 in1.0 mm
03:43 AM 42.0°F5.6°C 40.1°F4.5°C 93% 3.4 mph SW5.5 kmh SW 5.8 mph9.3 kmh 29.42 in996.3 mb - 0.05 in1.3 mm 0.05 in1.3 mm
03:48 AM 41.8°F5.4°C 39.9°F4.4°C 93% 5.8 mph WSW9.3 kmh WSW 9.2 mph14.8 kmh 29.42 in996.3 mb - 0.06 in1.5 mm 0.06 in1.5 mm
03:54 AM 41.7°F5.4°C 39.8°F4.3°C 93% 6.9 mph WSW11.1 kmh WSW 10.3 mph16.6 kmh 29.42 in996.3 mb - 0.06 in1.5 mm 0.06 in1.5 mm
04:00 AM 41.6°F5.3°C 39.7°F4.3°C 93% 5.8 mph WSW9.3 kmh WSW 9.2 mph14.8 kmh 29.43 in996.6 mb - 0.06 in1.5 mm 0.06 in1.5 mm
04:05 AM 41.6°F5.3°C 39.7°F4.3°C 93% 5.8 mph WSW9.3 kmh WSW 6.9 mph11.1 kmh 29.42 in996.3 mb - 0.06 in1.5 mm 0.06 in1.5 mm
04:11 AM 41.6°F5.3°C 39.7°F4.3°C 93% 6.9 mph W11.1 kmh W 6.9 mph11.1 kmh 29.42 in996.3 mb - 0.08 in2.0 mm 0.08 in2.0 mm
04:16 AM 41.5°F5.3°C 39.6°F4.2°C 93% 5.8 mph W9.3 kmh W 6.9 mph11.1 kmh 29.42 in996.3 mb - 0.08 in2.0 mm 0.08 in2.0 mm
04:22 AM 41.3°F5.2°C 39.4°F4.1°C 93% 6.9 mph W11.1 kmh W 9.2 mph14.8 kmh 29.42 in996.3 mb - 0.08 in2.0 mm 0.08 in2.0 mm
04:28 AM 41.0°F5.0°C 39.1°F3.9°C 93% 8.0 mph WSW12.9 kmh WSW 11.5 mph18.5 kmh 29.42 in996.3 mb - 0.09 in2.3 mm 0.09 in2.3 mm
04:33 AM 40.7°F4.8°C 38.9°F3.8°C 93% 8.0 mph W12.9 kmh W 11.5 mph18.5 kmh 29.42 in996.3 mb - 0.10 in2.5 mm 0.10 in2.5 mm
04:39 AM 40.7°F4.8°C 38.8°F3.8°C 93% 8.0 mph WSW12.9 kmh WSW 12.6 mph20.3 kmh 29.41 in995.9 mb - 0.11 in2.8 mm 0.11 in2.8 mm
04:45 AM 40.4°F4.7°C 38.5°F3.6°C 93% 9.2 mph WSW14.8 kmh WSW 13.8 mph22.2 kmh 29.42 in996.3 mb - 0.13 in3.3 mm 0.13 in3.3 mm
04:50 AM 40.4°F4.7°C 38.5°F3.6°C 93% 4.6 mph W7.4 kmh W 8.0 mph12.9 kmh 29.42 in996.3 mb - 0.13 in3.3 mm 0.13 in3.3 mm
04:56 AM 40.3°F4.6°C 38.4°F3.6°C 93% 9.2 mph WSW14.8 kmh WSW 14.9 mph24.0 kmh 29.43 in996.6 mb - 0.13 in3.3 mm 0.13 in3.3 mm
05:01 AM 40.1°F4.5°C 38.3°F3.5°C 93% 8.0 mph SW12.9 kmh SW 11.5 mph18.5 kmh 29.43 in996.6 mb - 0.13 in3.3 mm 0.13 in3.3 mm
05:07 AM 40.0°F4.4°C 38.1°F3.4°C 93% 6.9 mph W11.1 kmh W 11.5 mph18.5 kmh 29.43 in996.6 mb - 0.13 in3.3 mm 0.13 in3.3 mm
05:13 AM 40.0°F4.4°C 38.1°F3.4°C 93% 6.9 mph WSW11.1 kmh WSW 10.3 mph16.6 kmh 29.42 in996.3 mb - 0.14 in3.6 mm 0.14 in3.6 mm
05:18 AM 40.1°F4.5°C 38.5°F3.6°C 94% 8.0 mph WSW12.9 kmh WSW 10.3 mph16.6 kmh 29.42 in996.3 mb - 0.14 in3.6 mm 0.14 in3.6 mm
05:24 AM 40.1°F4.5°C 38.5°F3.6°C 94% 6.9 mph WSW11.1 kmh WSW 11.5 mph18.5 kmh 29.42 in996.3 mb - 0.14 in3.6 mm 0.14 in3.6 mm
05:30 AM 40.1°F4.5°C 38.5°F3.6°C 94% 6.9 mph WSW11.1 kmh WSW 11.5 mph18.5 kmh 29.42 in996.3 mb - 0.16 in4.1 mm 0.16 in4.1 mm
05:35 AM 40.2°F4.6°C 38.6°F3.7°C 94% 6.9 mph WSW11.1 kmh WSW 11.5 mph18.5 kmh 29.42 in996.3 mb - 0.16 in4.1 mm 0.16 in4.1 mm
05:41 AM 40.2°F4.6°C 38.6°F3.7°C 94% 8.0 mph SW12.9 kmh SW 12.6 mph20.3 kmh 29.41 in995.9 mb - 0.16 in4.1 mm 0.16 in4.1 mm
05:46 AM 40.2°F4.6°C 38.6°F3.7°C 94% 8.0 mph WSW12.9 kmh WSW 13.8 mph22.2 kmh 29.41 in995.9 mb - 0.16 in4.1 mm 0.16 in4.1 mm
05:52 AM 40.4°F4.7°C 38.8°F3.8°C 94% 8.0 mph WSW12.9 kmh WSW 9.2 mph14.8 kmh 29.41 in995.9 mb - 0.16 in4.1 mm 0.16 in4.1 mm
05:58 AM 40.4°F4.7°C 38.9°F3.8°C 94% 5.8 mph WSW9.3 kmh WSW 10.3 mph16.6 kmh 29.41 in995.9 mb - 0.16 in4.1 mm 0.16 in4.1 mm
06:03 AM 40.7°F4.8°C 39.1°F3.9°C 94% 5.8 mph WSW9.3 kmh WSW 9.2 mph14.8 kmh 29.41 in995.9 mb - 0.16 in4.1 mm 0.16 in4.1 mm
06:09 AM 40.7°F4.8°C 39.1°F3.9°C 94% 4.6 mph WSW7.4 kmh WSW 6.9 mph11.1 kmh 29.41 in995.9 mb - 0.16 in4.1 mm 0.16 in4.1 mm
06:15 AM 40.8°F4.9°C 39.2°F4.0°C 94% 5.8 mph WSW9.3 kmh WSW 11.5 mph18.5 kmh 29.41 in995.9 mb - 0.16 in4.1 mm 0.16 in4.1 mm
06:20 AM 41.0°F5.0°C 39.4°F4.1°C 94% 5.8 mph WSW9.3 kmh WSW 8.0 mph12.9 kmh 29.41 in995.9 mb - 0.16 in4.1 mm 0.16 in4.1 mm
06:26 AM 41.2°F5.1°C 39.6°F4.2°C 94% 8.0 mph WSW12.9 kmh WSW 11.5 mph18.5 kmh 29.41 in995.9 mb - 0.16 in4.1 mm 0.16 in4.1 mm
06:31 AM 41.3°F5.2°C 39.7°F4.3°C 94% 3.4 mph W5.5 kmh W 4.6 mph7.4 kmh 29.41 in995.9 mb - 0.16 in4.1 mm 0.16 in4.1 mm
06:37 AM 41.6°F5.3°C 40.0°F4.4°C 94% 5.8 mph WSW9.3 kmh WSW 8.0 mph12.9 kmh 29.41 in995.9 mb - 0.16 in4.1 mm 0.16 in4.1 mm
06:43 AM 41.7°F5.4°C 40.1°F4.5°C 94% 5.8 mph WSW9.3 kmh WSW 6.9 mph11.1 kmh 29.41 in995.9 mb - 0.16 in4.1 mm 0.16 in4.1 mm
06:48 AM 41.8°F5.4°C 40.2°F4.6°C 94% 5.8 mph WSW9.3 kmh WSW 8.0 mph12.9 kmh 29.41 in995.9 mb - 0.17 in4.3 mm 0.17 in4.3 mm
06:54 AM 41.9°F5.5°C 40.3°F4.6°C 94% 5.8 mph WSW9.3 kmh WSW 5.8 mph9.3 kmh 29.41 in995.9 mb - 0.17 in4.3 mm 0.17 in4.3 mm
07:00 AM 41.9°F5.5°C 40.3°F4.6°C 94% 3.4 mph WSW5.5 kmh WSW 6.9 mph11.1 kmh 29.41 in995.9 mb - 0.17 in4.3 mm 0.17 in4.3 mm
07:05 AM 41.9°F5.5°C 40.3°F4.6°C 94% 4.6 mph WSW7.4 kmh WSW 9.2 mph14.8 kmh 29.41 in995.9 mb - 0.17 in4.3 mm 0.17 in4.3 mm
07:11 AM 41.9°F5.5°C 40.3°F4.6°C 94% 4.6 mph WSW7.4 kmh WSW 5.8 mph9.3 kmh 29.41 in995.9 mb - 0.17 in4.3 mm 0.17 in4.3 mm
07:16 AM 41.9°F5.5°C 40.3°F4.6°C 94% 5.8 mph W9.3 kmh W 5.8 mph9.3 kmh 29.41 in995.9 mb - 0.17 in4.3 mm 0.17 in4.3 mm
07:22 AM 41.5°F5.3°C 39.9°F4.4°C 94% 5.8 mph WSW9.3 kmh WSW 9.2 mph14.8 kmh 29.41 in995.9 mb - 0.17 in4.3 mm 0.17 in4.3 mm
07:28 AM 41.5°F5.3°C 39.9°F4.4°C 94% 4.6 mph WSW7.4 kmh WSW 4.6 mph7.4 kmh 29.41 in995.9 mb - 0.17 in4.3 mm 0.17 in4.3 mm
07:33 AM 41.4°F5.2°C 39.8°F4.3°C 94% 3.4 mph WSW5.5 kmh WSW 9.2 mph14.8 kmh 29.41 in995.9 mb - 0.17 in4.3 mm 0.17 in4.3 mm
07:39 AM 41.2°F5.1°C 39.3°F4.1°C 93% 3.4 mph W5.5 kmh W 4.6 mph7.4 kmh 29.41 in995.9 mb - 0.17 in4.3 mm 0.17 in4.3 mm
07:45 AM 41.0°F5.0°C 39.1°F3.9°C 93% 3.4 mph W5.5 kmh W 4.6 mph7.4 kmh 29.41 in995.9 mb - 0.17 in4.3 mm 0.17 in4.3 mm
07:50 AM 41.0°F5.0°C 39.1°F3.9°C 93% 4.6 mph NW7.4 kmh NW 5.8 mph9.3 kmh 29.41 in995.9 mb - 0.17 in4.3 mm 0.17 in4.3 mm
07:56 AM 41.0°F5.0°C 39.1°F3.9°C 93% 5.8 mph W9.3 kmh W 6.9 mph11.1 kmh 29.42 in996.3 mb - 0.17 in4.3 mm 0.17 in4.3 mm
08:01 AM 41.0°F5.0°C 39.1°F3.9°C 93% 6.9 mph WSW11.1 kmh WSW 11.5 mph18.5 kmh 29.42 in996.3 mb - 0.17 in4.3 mm 0.17 in4.3 mm
08:07 AM 41.2°F5.1°C 39.1°F3.9°C 92% 5.8 mph W9.3 kmh W 5.8 mph9.3 kmh 29.42 in996.3 mb - 0.17 in4.3 mm 0.17 in4.3 mm
08:13 AM 41.5°F5.3°C 39.3°F4.1°C 92% 6.9 mph WSW11.1 kmh WSW 10.3 mph16.6 kmh 29.43 in996.6 mb - 0.17 in4.3 mm 0.17 in4.3 mm
08:18 AM 41.7°F5.4°C 39.5°F4.2°C 92% 4.6 mph WSW7.4 kmh WSW 8.0 mph12.9 kmh 29.43 in996.6 mb - 0.17 in4.3 mm 0.17 in4.3 mm
08:24 AM 41.5°F5.3°C 39.3°F4.1°C 92% 5.8 mph WSW9.3 kmh WSW 5.8 mph9.3 kmh 29.43 in996.6 mb - 0.17 in4.3 mm 0.17 in4.3 mm
08:30 AM 41.2°F5.1°C 39.1°F3.9°C 92% 8.0 mph WSW12.9 kmh WSW 11.5 mph18.5 kmh 29.43 in996.6 mb - 0.17 in4.3 mm 0.17 in4.3 mm
08:35 AM 41.2°F5.1°C 39.0°F3.9°C 92% 4.6 mph WSW7.4 kmh WSW 8.0 mph12.9 kmh 29.43 in996.6 mb - 0.17 in4.3 mm 0.17 in4.3 mm
08:41 AM 41.1°F5.1°C 38.9°F3.8°C 92% 5.8 mph WSW9.3 kmh WSW 6.9 mph11.1 kmh 29.43 in996.6 mb - 0.17 in4.3 mm 0.17 in4.3 mm
08:46 AM 41.1°F5.1°C 39.2°F4.0°C 93% 6.9 mph WSW11.1 kmh WSW 9.2 mph14.8 kmh 29.43 in996.6 mb - 0.17 in4.3 mm 0.17 in4.3 mm
08:52 AM 41.2°F5.1°C 39.3°F4.1°C 93% 4.6 mph WSW7.4 kmh WSW 5.8 mph9.3 kmh 29.43 in996.6 mb - 0.17 in4.3 mm 0.17 in4.3 mm
08:58 AM 41.3°F5.2°C 39.4°F4.1°C 93% 4.6 mph WSW7.4 kmh WSW 8.0 mph12.9 kmh 29.43 in996.6 mb - 0.17 in4.3 mm 0.17 in4.3 mm
09:03 AM 41.4°F5.2°C 39.5°F4.2°C 93% 5.8 mph WSW9.3 kmh WSW 4.6 mph7.4 kmh 29.43 in996.6 mb - 0.17 in4.3 mm 0.17 in4.3 mm
09:09 AM 41.4°F5.2°C 39.6°F4.2°C 93% 5.8 mph WSW9.3 kmh WSW 9.2 mph14.8 kmh 29.43 in996.6 mb - 0.17 in4.3 mm 0.17 in4.3 mm
09:15 AM 41.5°F5.3°C 39.3°F4.1°C 92% 4.6 mph SW7.4 kmh SW 5.8 mph9.3 kmh 29.43 in996.6 mb - 0.17 in4.3 mm 0.17 in4.3 mm
09:20 AM 41.5°F5.3°C 39.3°F4.1°C 92% 5.8 mph WSW9.3 kmh WSW 11.5 mph18.5 kmh 29.43 in996.6 mb - 0.17 in4.3 mm 0.17 in4.3 mm
09:26 AM 41.5°F5.3°C 39.3°F4.1°C 92% 5.8 mph WSW9.3 kmh WSW 5.8 mph9.3 kmh 29.44 in997.0 mb - 0.17 in4.3 mm 0.17 in4.3 mm
09:31 AM 41.5°F5.3°C 39.3°F4.1°C 92% 6.9 mph WSW11.1 kmh WSW 12.6 mph20.3 kmh 29.44 in997.0 mb - 0.17 in4.3 mm 0.17 in4.3 mm
09:37 AM 41.6°F5.3°C 39.4°F4.1°C 92% 4.6 mph W7.4 kmh W 6.9 mph11.1 kmh 29.44 in997.0 mb - 0.17 in4.3 mm 0.17 in4.3 mm
09:43 AM 41.5°F5.3°C 39.1°F3.9°C 91% 5.8 mph SW9.3 kmh SW 10.3 mph16.6 kmh 29.44 in997.0 mb - 0.17 in4.3 mm 0.17 in4.3 mm
09:48 AM 41.5°F5.3°C 39.1°F3.9°C 91% 6.9 mph WSW11.1 kmh WSW 10.3 mph16.6 kmh 29.44 in997.0 mb - 0.17 in4.3 mm 0.17 in4.3 mm
09:54 AM 41.4°F5.2°C 39.0°F3.9°C 91% 5.8 mph WSW9.3 kmh WSW 12.6 mph20.3 kmh 29.44 in997.0 mb - 0.17 in4.3 mm 0.17 in4.3 mm
10:00 AM 41.3°F5.2°C 38.9°F3.8°C 91% 4.6 mph W7.4 kmh W 8.0 mph12.9 kmh 29.44 in997.0 mb - 0.17 in4.3 mm 0.17 in4.3 mm
10:05 AM 41.3°F5.2°C 38.9°F3.8°C 91% 6.9 mph WSW11.1 kmh WSW 9.2 mph14.8 kmh 29.44 in997.0 mb - 0.17 in4.3 mm 0.17 in4.3 mm
10:11 AM 41.3°F5.2°C 38.9°F3.8°C 91% 5.8 mph WSW9.3 kmh WSW 9.2 mph14.8 kmh 29.44 in997.0 mb - 0.17 in4.3 mm 0.17 in4.3 mm
10:16 AM 41.5°F5.3°C 39.1°F3.9°C 91% 4.6 mph WSW7.4 kmh WSW 8.0 mph12.9 kmh 29.44 in997.0 mb - 0.17 in4.3 mm 0.17 in4.3 mm
10:22 AM 41.6°F5.3°C 38.9°F3.8°C 90% 6.9 mph WSW11.1 kmh WSW 9.2 mph14.8 kmh 29.44 in997.0 mb - 0.17 in4.3 mm 0.17 in4.3 mm
10:28 AM 41.7°F5.4°C 39.3°F4.1°C 91% 2.3 mph WSW3.7 kmh WSW 6.9 mph11.1 kmh 29.44 in997.0 mb - 0.17 in4.3 mm 0.17 in4.3 mm
10:33 AM 42.0°F5.6°C 39.2°F4.0°C 90% 3.4 mph W5.5 kmh W 3.4 mph5.5 kmh 29.44 in997.0 mb - 0.17 in4.3 mm 0.17 in4.3 mm
10:39 AM 41.9°F5.5°C 39.2°F4.0°C 90% 5.8 mph WSW9.3 kmh WSW 10.3 mph16.6 kmh 29.44 in997.0 mb - 0.17 in4.3 mm 0.17 in4.3 mm
10:45 AM 41.9°F5.5°C 39.2°F4.0°C 90% 5.8 mph WSW9.3 kmh WSW 8.0 mph12.9 kmh 29.44 in997.0 mb - 0.17 in4.3 mm 0.17 in4.3 mm
10:50 AM 42.0°F5.6°C 39.3°F4.1°C 90% 4.6 mph WSW7.4 kmh WSW 16.1 mph25.9 kmh 29.44 in997.0 mb - 0.17 in4.3 mm 0.17 in4.3 mm
10:56 AM 42.0°F5.6°C 39.3°F4.1°C 90% 5.8 mph WSW9.3 kmh WSW 11.5 mph18.5 kmh 29.44 in997.0 mb - 0.17 in4.3 mm 0.17 in4.3 mm
11:01 AM 41.9°F5.5°C 38.9°F3.8°C 89% 10.3 mph SW16.6 kmh SW 12.6 mph20.3 kmh 29.44 in997.0 mb - 0.17 in4.3 mm 0.17 in4.3 mm
11:07 AM 41.7°F5.4°C 38.9°F3.8°C 90% 5.8 mph WSW9.3 kmh WSW 10.3 mph16.6 kmh 29.44 in997.0 mb - 0.17 in4.3 mm 0.17 in4.3 mm
11:13 AM 41.5°F5.3°C 38.8°F3.8°C 90% 6.9 mph WSW11.1 kmh WSW 10.3 mph16.6 kmh 29.44 in997.0 mb - 0.17 in4.3 mm 0.17 in4.3 mm
11:18 AM 41.5°F5.3°C 38.8°F3.8°C 90% 5.8 mph WSW9.3 kmh WSW 10.3 mph16.6 kmh 29.44 in997.0 mb - 0.17 in4.3 mm 0.17 in4.3 mm
11:24 AM 41.6°F5.3°C 39.1°F3.9°C 91% 4.6 mph WSW7.4 kmh WSW 8.0 mph12.9 kmh 29.44 in997.0 mb - 0.17 in4.3 mm 0.17 in4.3 mm
11:30 AM 41.7°F5.4°C 39.3°F4.1°C 91% 6.9 mph WSW11.1 kmh WSW 11.5 mph18.5 kmh 29.43 in996.6 mb - 0.17 in4.3 mm 0.17 in4.3 mm
11:35 AM 41.9°F5.5°C 39.5°F4.2°C 91% 5.8 mph W9.3 kmh W 5.8 mph9.3 kmh 29.43 in996.6 mb - 0.17 in4.3 mm 0.17 in4.3 mm
11:41 AM 42.1°F5.6°C 39.4°F4.1°C 90% 8.0 mph WSW12.9 kmh WSW 11.5 mph18.5 kmh 29.43 in996.6 mb - 0.17 in4.3 mm 0.17 in4.3 mm
11:46 AM 42.2°F5.7°C 39.5°F4.2°C 90% 8.0 mph WSW12.9 kmh WSW 11.5 mph18.5 kmh 29.43 in996.6 mb - 0.17 in4.3 mm 0.17 in4.3 mm
11:52 AM 42.1°F5.6°C 39.4°F4.1°C 90% 5.8 mph WSW9.3 kmh WSW 9.2 mph14.8 kmh 29.43 in996.6 mb - 0.17 in4.3 mm 0.17 in4.3 mm
11:58 AM 42.1°F5.6°C 39.4°F4.1°C 90% 5.8 mph WSW9.3 kmh WSW 10.3 mph16.6 kmh 29.43 in996.6 mb - 0.17 in4.3 mm 0.17 in4.3 mm
12:03 PM 42.0°F5.6°C 39.3°F4.1°C 90% 8.0 mph SW12.9 kmh SW 10.3 mph16.6 kmh 29.44 in997.0 mb - 0.17 in4.3 mm 0.17 in4.3 mm
12:09 PM 41.9°F5.5°C 39.2°F4.0°C 90% 5.8 mph WSW9.3 kmh WSW 9.2 mph14.8 kmh 29.44 in997.0 mb - 0.17 in4.3 mm 0.17 in4.3 mm
12:15 PM 42.0°F5.6°C 39.3°F4.1°C 90% 5.8 mph WSW9.3 kmh WSW 8.0 mph12.9 kmh 29.43 in996.6 mb - 0.17 in4.3 mm 0.17 in4.3 mm
12:20 PM 42.1°F5.6°C 39.4°F4.1°C 90% 4.6 mph WSW7.4 kmh WSW 9.2 mph14.8 kmh 29.43 in996.6 mb - 0.17 in4.3 mm 0.17 in4.3 mm
12:26 PM 42.3°F5.7°C 39.3°F4.1°C 89% 5.8 mph WSW9.3 kmh WSW 8.0 mph12.9 kmh 29.43 in996.6 mb - 0.17 in4.3 mm 0.17 in4.3 mm
12:31 PM 42.3°F5.7°C 39.3°F4.1°C 89% 6.9 mph WSW11.1 kmh WSW 6.9 mph11.1 kmh 29.43 in996.6 mb - 0.17 in4.3 mm 0.17 in4.3 mm
12:37 PM 42.5°F5.8°C 39.5°F4.2°C 89% 8.0 mph WSW12.9 kmh WSW 14.9 mph24.0 kmh 29.43 in996.6 mb - 0.17 in4.3 mm 0.17 in4.3 mm
12:43 PM 42.9°F6.1°C 39.9°F4.4°C 89% 6.9 mph WSW11.1 kmh WSW 10.3 mph16.6 kmh 29.43 in996.6 mb - 0.17 in4.3 mm 0.17 in4.3 mm
12:48 PM 43.3°F6.3°C 40.0°F4.4°C 88% 5.8 mph WSW9.3 kmh WSW 8.0 mph12.9 kmh 29.43 in996.6 mb - 0.17 in4.3 mm 0.17 in4.3 mm
12:54 PM 43.1°F6.2°C 39.5°F4.2°C 87% 6.9 mph WSW11.1 kmh WSW 8.0 mph12.9 kmh 29.43 in996.6 mb - 0.17 in4.3 mm 0.17 in4.3 mm
01:00 PM 43.0°F6.1°C 39.4°F4.1°C 87% 5.8 mph WSW9.3 kmh WSW 11.5 mph18.5 kmh 29.43 in996.6 mb - 0.17 in4.3 mm 0.17 in4.3 mm
01:05 PM 43.0°F6.1°C 39.4°F4.1°C 87% 5.8 mph WSW9.3 kmh WSW 9.2 mph14.8 kmh 29.43 in996.6 mb - 0.17 in4.3 mm 0.17 in4.3 mm
01:11 PM 42.9°F6.1°C 39.3°F4.1°C 87% 4.6 mph W7.4 kmh W 10.3 mph16.6 kmh 29.43 in996.6 mb - 0.17 in4.3 mm 0.17 in4.3 mm
01:16 PM 42.9°F6.1°C 39.3°F4.1°C 87% 6.9 mph WSW11.1 kmh WSW 9.2 mph14.8 kmh 29.43 in996.6 mb - 0.17 in4.3 mm 0.17 in4.3 mm
01:22 PM 42.7°F5.9°C 39.4°F4.1°C 88% 3.4 mph WSW5.5 kmh WSW 4.6 mph7.4 kmh 29.43 in996.6 mb - 0.17 in4.3 mm 0.17 in4.3 mm
01:28 PM 42.7°F5.9°C 39.4°F4.1°C 88% 4.6 mph SW7.4 kmh SW 10.3 mph16.6 kmh 29.43 in996.6 mb - 0.17 in4.3 mm 0.17 in4.3 mm
01:33 PM 42.6°F5.9°C 39.3°F4.1°C 88% 6.9 mph WSW11.1 kmh WSW 11.5 mph18.5 kmh 29.43 in996.6 mb - 0.17 in4.3 mm 0.17 in4.3 mm
01:39 PM 42.6°F5.9°C 39.3°F4.1°C 88% 6.9 mph WSW11.1 kmh WSW 11.5 mph18.5 kmh 29.43 in996.6 mb - 0.17 in4.3 mm 0.17 in4.3 mm
01:45 PM 42.6°F5.9°C 39.0°F3.9°C 87% 4.6 mph W7.4 kmh W 4.6 mph7.4 kmh 29.43 in996.6 mb - 0.17 in4.3 mm 0.17 in4.3 mm
01:50 PM 42.6°F5.9°C 39.0°F3.9°C 87% 4.6 mph WSW7.4 kmh WSW 6.9 mph11.1 kmh 29.43 in996.6 mb - 0.17 in4.3 mm 0.17 in4.3 mm
01:56 PM 42.9°F6.1°C 39.3°F4.1°C 87% 6.9 mph WSW11.1 kmh WSW 8.0 mph12.9 kmh 29.43 in996.6 mb - 0.17 in4.3 mm 0.17 in4.3 mm
02:01 PM 42.9°F6.1°C 39.3°F4.1°C 87% 5.8 mph W9.3 kmh W 6.9 mph11.1 kmh 29.43 in996.6 mb - 0.17 in4.3 mm 0.17 in4.3 mm
02:07 PM 42.9°F6.1°C 39.3°F4.1°C 87% 6.9 mph WSW11.1 kmh WSW 9.2 mph14.8 kmh 29.43 in996.6 mb - 0.17 in4.3 mm 0.17 in4.3 mm
02:13 PM 42.8°F6.0°C 39.2°F4.0°C 87% 5.8 mph WSW9.3 kmh WSW 10.3 mph16.6 kmh 29.43 in996.6 mb - 0.17 in4.3 mm 0.17 in4.3 mm
02:18 PM 42.8°F6.0°C 39.2°F4.0°C 87% 3.4 mph WSW5.5 kmh WSW 4.6 mph7.4 kmh 29.43 in996.6 mb - 0.17 in4.3 mm 0.17 in4.3 mm
02:24 PM 42.8°F6.0°C 39.2°F4.0°C 87% 4.6 mph WSW7.4 kmh WSW 6.9 mph11.1 kmh 29.43 in996.6 mb - 0.17 in4.3 mm 0.17 in4.3 mm
02:30 PM 42.7°F5.9°C 38.8°F3.8°C 86% 10.3 mph W16.6 kmh W 13.8 mph22.2 kmh 29.43 in996.6 mb - 0.17 in4.3 mm 0.17 in4.3 mm
02:35 PM 42.7°F5.9°C 38.8°F3.8°C 86% 5.8 mph WSW9.3 kmh WSW 9.2 mph14.8 kmh 29.43 in996.6 mb - 0.17 in4.3 mm 0.17 in4.3 mm
02:41 PM 42.8°F6.0°C 38.9°F3.8°C 86% 3.4 mph WSW5.5 kmh WSW 6.9 mph11.1 kmh 29.43 in996.6 mb - 0.17 in4.3 mm 0.17 in4.3 mm
02:46 PM 42.7°F5.9°C 38.8°F3.8°C 86% 4.6 mph WSW7.4 kmh WSW 10.3 mph16.6 kmh 29.42 in996.3 mb - 0.17 in4.3 mm 0.17 in4.3 mm
02:52 PM 42.7°F5.9°C 38.9°F3.8°C 86% 6.9 mph SW11.1 kmh SW 9.2 mph14.8 kmh 29.43 in996.6 mb - 0.17 in4.3 mm 0.17 in4.3 mm
02:58 PM 42.8°F6.0°C 38.9°F3.8°C 86% 5.8 mph SW9.3 kmh SW 9.2 mph14.8 kmh 29.43 in996.6 mb - 0.17 in4.3 mm 0.17 in4.3 mm
03:03 PM 42.8°F6.0°C 39.2°F4.0°C 87% 4.6 mph WSW7.4 kmh WSW 5.8 mph9.3 kmh 29.43 in996.6 mb - 0.17 in4.3 mm 0.17 in4.3 mm
03:09 PM 42.8°F6.0°C 39.2°F4.0°C 87% 5.8 mph SW9.3 kmh SW 8.0 mph12.9 kmh 29.43 in996.6 mb - 0.17 in4.3 mm 0.17 in4.3 mm
03:15 PM 42.7°F5.9°C 38.8°F3.8°C 86% 6.9 mph WSW11.1 kmh WSW 10.3 mph16.6 kmh 29.43 in996.6 mb - 0.17 in4.3 mm 0.17 in4.3 mm
03:20 PM 42.9°F6.1°C 39.0°F3.9°C 86% 3.4 mph WSW5.5 kmh WSW 5.8 mph9.3 kmh 29.43 in996.6 mb - 0.17 in4.3 mm 0.17 in4.3 mm
03:26 PM 42.8°F6.0°C 38.6°F3.7°C 85% 6.9 mph WSW11.1 kmh WSW 8.0 mph12.9 kmh 29.43 in996.6 mb - 0.17 in4.3 mm 0.17 in4.3 mm
03:31 PM 42.8°F6.0°C 38.6°F3.7°C 85% 6.9 mph WSW11.1 kmh WSW 10.3 mph16.6 kmh 29.43 in996.6 mb - 0.17 in4.3 mm 0.17 in4.3 mm
03:37 PM 42.6°F5.9°C 38.4°F3.6°C 85% 3.4 mph WSW5.5 kmh WSW 6.9 mph11.1 kmh 29.43 in996.6 mb - 0.17 in4.3 mm 0.17 in4.3 mm
03:43 PM 42.6°F5.9°C 38.4°F3.6°C 85% 5.8 mph WSW9.3 kmh WSW 10.3 mph16.6 kmh 29.43 in996.6 mb - 0.17 in4.3 mm 0.17 in4.3 mm
03:48 PM 42.5°F5.8°C 38.6°F3.7°C 86% 6.9 mph WSW11.1 kmh WSW 12.6 mph20.3 kmh 29.43 in996.6 mb - 0.17 in4.3 mm 0.17 in4.3 mm
03:54 PM 42.1°F5.6°C 38.3°F3.5°C 86% 5.8 mph WSW9.3 kmh WSW 6.9 mph11.1 kmh 29.43 in996.6 mb - 0.17 in4.3 mm 0.17 in4.3 mm
04:00 PM 41.9°F5.5°C 38.0°F3.3°C 86% 5.8 mph WSW9.3 kmh WSW 11.5 mph18.5 kmh 29.43 in996.6 mb - 0.17 in4.3 mm 0.17 in4.3 mm
04:05 PM 41.8°F5.4°C 38.2°F3.4°C 87% 3.4 mph WSW5.5 kmh WSW 4.6 mph7.4 kmh 29.43 in996.6 mb - 0.17 in4.3 mm 0.17 in4.3 mm
04:11 PM 41.8°F5.4°C 38.2°F3.4°C 87% 5.8 mph WSW9.3 kmh WSW 9.2 mph14.8 kmh 29.43 in996.6 mb - 0.17 in4.3 mm 0.17 in4.3 mm
04:16 PM 41.8°F5.4°C 38.2°F3.4°C 87% 4.6 mph SW7.4 kmh SW 4.6 mph7.4 kmh 29.43 in996.6 mb - 0.17 in4.3 mm 0.17 in4.3 mm
04:22 PM 41.9°F5.5°C 38.3°F3.5°C 87% 5.8 mph WSW9.3 kmh WSW 6.9 mph11.1 kmh 29.43 in996.6 mb - 0.17 in4.3 mm 0.17 in4.3 mm
04:28 PM 41.9°F5.5°C 38.3°F3.5°C 87% 5.8 mph WSW9.3 kmh WSW 10.3 mph16.6 kmh 29.43 in996.6 mb - 0.17 in4.3 mm 0.17 in4.3 mm
04:33 PM 41.9°F5.5°C 38.3°F3.5°C 87% 5.8 mph WSW9.3 kmh WSW 8.0 mph12.9 kmh 29.43 in996.6 mb - 0.17 in4.3 mm 0.17 in4.3 mm
04:39 PM 41.8°F5.4°C 38.2°F3.4°C 87% 5.8 mph WSW9.3 kmh WSW 6.9 mph11.1 kmh 29.43 in996.6 mb - 0.17 in4.3 mm 0.17 in4.3 mm
04:45 PM 41.7°F5.4°C 38.1°F3.4°C 87% 5.8 mph SW9.3 kmh SW 8.0 mph12.9 kmh 29.42 in996.3 mb - 0.17 in4.3 mm 0.17 in4.3 mm
04:50 PM 41.6°F5.3°C 38.0°F3.3°C 87% 5.8 mph SW9.3 kmh SW 6.9 mph11.1 kmh 29.42 in996.3 mb - 0.17 in4.3 mm 0.17 in4.3 mm
04:56 PM 41.5°F5.3°C 38.2°F3.4°C 88% 3.4 mph SW5.5 kmh SW 5.8 mph9.3 kmh 29.42 in996.3 mb - 0.17 in4.3 mm 0.17 in4.3 mm
05:01 PM 41.4°F5.2°C 38.1°F3.4°C 88% 5.8 mph SW9.3 kmh SW 9.2 mph14.8 kmh 29.42 in996.3 mb - 0.17 in4.3 mm 0.17 in4.3 mm
05:07 PM 41.4°F5.2°C 38.2°F3.4°C 88% 6.9 mph WSW11.1 kmh WSW 8.0 mph12.9 kmh 29.43 in996.6 mb - 0.17 in4.3 mm 0.17 in4.3 mm
05:13 PM 41.5°F5.3°C 38.2°F3.4°C 88% 5.8 mph WSW9.3 kmh WSW 9.2 mph14.8 kmh 29.43 in996.6 mb - 0.17 in4.3 mm 0.17 in4.3 mm
05:18 PM 41.3°F5.2°C 38.0°F3.3°C 88% 5.8 mph WSW9.3 kmh WSW 6.9 mph11.1 kmh 29.42 in996.3 mb - 0.17 in4.3 mm 0.17 in4.3 mm
05:24 PM 41.0°F5.0°C 37.8°F3.2°C 88% 6.9 mph SW11.1 kmh SW 8.0 mph12.9 kmh 29.43 in996.6 mb - 0.17 in4.3 mm 0.17 in4.3 mm
05:30 PM 41.0°F5.0°C 37.7°F3.2°C 88% 5.8 mph WSW9.3 kmh WSW 10.3 mph16.6 kmh 29.43 in996.6 mb - 0.17 in4.3 mm 0.17 in4.3 mm
05:35 PM 40.9°F4.9°C 37.6°F3.1°C 88% 6.9 mph SW11.1 kmh SW 10.3 mph16.6 kmh 29.43 in996.6 mb - 0.17 in4.3 mm 0.17 in4.3 mm
05:41 PM 40.7°F4.8°C 37.7°F3.2°C 89% 5.8 mph WSW9.3 kmh WSW 9.2 mph14.8 kmh 29.43 in996.6 mb - 0.17 in4.3 mm 0.17 in4.3 mm
05:46 PM 40.7°F4.8°C 37.7°F3.2°C 89% 6.9 mph WSW11.1 kmh WSW 10.3 mph16.6 kmh 29.42 in996.3 mb - 0.17 in4.3 mm 0.17 in4.3 mm
05:52 PM 40.6°F4.8°C 37.6°F3.1°C 89% 5.8 mph WSW9.3 kmh WSW 10.3 mph16.6 kmh 29.42 in996.3 mb - 0.17 in4.3 mm 0.17 in4.3 mm
05:58 PM 40.5°F4.7°C 37.5°F3.1°C 89% 5.8 mph SW9.3 kmh SW 6.9 mph11.1 kmh 29.42 in996.3 mb - 0.17 in4.3 mm 0.17 in4.3 mm
06:03 PM 40.3°F4.6°C 37.3°F2.9°C 89% 3.4 mph WSW5.5 kmh WSW 6.9 mph11.1 kmh 29.42 in996.3 mb - 0.17 in4.3 mm 0.17 in4.3 mm
06:09 PM 40.1°F4.5°C 37.4°F3.0°C 90% 4.6 mph WSW7.4 kmh WSW 6.9 mph11.1 kmh 29.42 in996.3 mb - 0.17 in4.3 mm 0.17 in4.3 mm
06:15 PM 40.0°F4.4°C 37.3°F2.9°C 90% 4.6 mph SW7.4 kmh SW 5.8 mph9.3 kmh 29.42 in996.3 mb - 0.17 in4.3 mm 0.17 in4.3 mm
06:20 PM 39.9°F4.4°C 37.2°F2.9°C 90% 3.4 mph WSW5.5 kmh WSW 4.6 mph7.4 kmh 29.42 in996.3 mb - 0.17 in4.3 mm 0.17 in4.3 mm
06:26 PM 39.9°F4.4°C 37.2°F2.9°C 90% 3.4 mph WSW5.5 kmh WSW 5.8 mph9.3 kmh 29.42 in996.3 mb - 0.17 in4.3 mm 0.17 in4.3 mm
06:31 PM 39.9°F4.4°C 37.2°F2.9°C 90% 5.8 mph WSW9.3 kmh WSW 5.8 mph9.3 kmh 29.41 in995.9 mb - 0.17 in4.3 mm 0.17 in4.3 mm
06:37 PM 39.9°F4.4°C 37.4°F3.0°C 91% 3.4 mph WSW5.5 kmh WSW 8.0 mph12.9 kmh 29.41 in995.9 mb - 0.17 in4.3 mm 0.17 in4.3 mm
06:43 PM 39.8°F4.3°C 37.4°F3.0°C 91% 4.6 mph WSW7.4 kmh WSW 8.0 mph12.9 kmh 29.41 in995.9 mb - 0.17 in4.3 mm 0.17 in4.3 mm
06:48 PM 39.7°F4.3°C 37.3°F2.9°C 91% 3.4 mph SW5.5 kmh SW 4.6 mph7.4 kmh 29.41 in995.9 mb - 0.17 in4.3 mm 0.17 in4.3 mm
06:54 PM 39.7°F4.3°C 37.3°F2.9°C 91% 1.1 mph W1.8 kmh W 3.4 mph5.5 kmh 29.41 in995.9 mb - 0.17 in4.3 mm 0.17 in4.3 mm
07:00 PM 39.7°F4.3°C 37.3°F2.9°C 91% 5.8 mph SW9.3 kmh SW 8.0 mph12.9 kmh 29.41 in995.9 mb - 0.17 in4.3 mm 0.17 in4.3 mm
07:05 PM 39.7°F4.3°C 37.3°F2.9°C 91% 3.4 mph WSW5.5 kmh WSW 5.8 mph9.3 kmh 29.41 in995.9 mb - 0.17 in4.3 mm 0.17 in4.3 mm
07:11 PM 39.5°F4.2°C 37.1°F2.8°C 91% 4.6 mph SW7.4 kmh SW 6.9 mph11.1 kmh 29.41 in995.9 mb - 0.17 in4.3 mm 0.17 in4.3 mm
07:16 PM 39.6°F4.2°C 37.2°F2.9°C 91% 3.4 mph SW5.5 kmh SW 6.9 mph11.1 kmh 29.41 in995.9 mb - 0.17 in4.3 mm 0.17 in4.3 mm
07:22 PM 39.6°F4.2°C 37.2°F2.9°C 91% 6.9 mph WSW11.1 kmh WSW 11.5 mph18.5 kmh 29.41 in995.9 mb - 0.17 in4.3 mm 0.17 in4.3 mm
07:28 PM 39.8°F4.3°C 37.4°F3.0°C 91% 5.8 mph SW9.3 kmh SW 6.9 mph11.1 kmh 29.41 in995.9 mb - 0.17 in4.3 mm 0.17 in4.3 mm
07:33 PM 39.8°F4.3°C 37.4°F3.0°C 91% 4.6 mph SW7.4 kmh SW 6.9 mph11.1 kmh 29.41 in995.9 mb - 0.17 in4.3 mm 0.17 in4.3 mm
07:39 PM 39.8°F4.3°C 37.1°F2.8°C 90% 5.8 mph WSW9.3 kmh WSW 9.2 mph14.8 kmh 29.41 in995.9 mb - 0.17 in4.3 mm 0.17 in4.3 mm
07:45 PM 39.9°F4.4°C 37.2°F2.9°C 90% 4.6 mph WSW7.4 kmh WSW 9.2 mph14.8 kmh 29.41 in995.9 mb - 0.17 in4.3 mm 0.17 in4.3 mm
07:50 PM 39.9°F4.4°C 37.2°F2.9°C 90% 6.9 mph SW11.1 kmh SW 10.3 mph16.6 kmh 29.41 in995.9 mb - 0.17 in4.3 mm 0.17 in4.3 mm
07:56 PM 40.0°F4.4°C 37.3°F2.9°C 90% 5.8 mph SW9.3 kmh SW 6.9 mph11.1 kmh 29.41 in995.9 mb - 0.17 in4.3 mm 0.17 in4.3 mm
08:01 PM 40.0°F4.4°C 37.3°F2.9°C 90% 6.9 mph WSW11.1 kmh WSW 8.0 mph12.9 kmh 29.41 in995.9 mb - 0.17 in4.3 mm 0.17 in4.3 mm
08:07 PM 40.0°F4.4°C 37.3°F2.9°C 90% 5.8 mph SW9.3 kmh SW 11.5 mph18.5 kmh 29.40 in995.6 mb - 0.17 in4.3 mm 0.17 in4.3 mm
08:13 PM 39.9°F4.4°C 37.2°F2.9°C 90% 4.6 mph WSW7.4 kmh WSW 6.9 mph11.1 kmh 29.40 in995.6 mb - 0.17 in4.3 mm 0.17 in4.3 mm
08:18 PM 40.0°F4.4°C 37.3°F2.9°C 90% 6.9 mph W11.1 kmh W 8.0 mph12.9 kmh 29.40 in995.6 mb - 0.17 in4.3 mm 0.17 in4.3 mm
08:24 PM 40.0°F4.4°C 37.3°F2.9°C 90% 6.9 mph WSW11.1 kmh WSW 11.5 mph18.5 kmh 29.40 in995.6 mb - 0.17 in4.3 mm 0.17 in4.3 mm
08:30 PM 40.0°F4.4°C 37.0°F2.8°C 89% 6.9 mph WSW11.1 kmh WSW 11.5 mph18.5 kmh 29.40 in995.6 mb - 0.17 in4.3 mm 0.17 in4.3 mm
08:35 PM 40.0°F4.4°C 37.0°F2.8°C 89% 5.8 mph SW9.3 kmh SW 9.2 mph14.8 kmh 29.40 in995.6 mb - 0.17 in4.3 mm 0.17 in4.3 mm
08:41 PM 40.0°F4.4°C 37.3°F2.9°C 90% 6.9 mph WSW11.1 kmh WSW 12.6 mph20.3 kmh 29.40 in995.6 mb - 0.17 in4.3 mm 0.17 in4.3 mm
08:46 PM 40.0°F4.4°C 37.3°F2.9°C 90% 6.9 mph WSW11.1 kmh WSW 10.3 mph16.6 kmh 29.40 in995.6 mb - 0.17 in4.3 mm 0.17 in4.3 mm
08:52 PM 40.1°F4.5°C 37.4°F3.0°C 90% 6.9 mph SW11.1 kmh SW 8.0 mph12.9 kmh 29.40 in995.6 mb - 0.17 in4.3 mm 0.17 in4.3 mm
08:58 PM 40.1°F4.5°C 37.4°F3.0°C 90% 5.8 mph SW9.3 kmh SW 9.2 mph14.8 kmh 29.40 in995.6 mb - 0.17 in4.3 mm 0.17 in4.3 mm
09:03 PM 40.2°F4.6°C 37.2°F2.9°C 89% 5.8 mph SW9.3 kmh SW 5.8 mph9.3 kmh 29.40 in995.6 mb - 0.17 in4.3 mm 0.17 in4.3 mm
09:09 PM 40.2°F4.6°C 37.2°F2.9°C 89% 6.9 mph SW11.1 kmh SW 11.5 mph18.5 kmh 29.40 in995.6 mb - 0.17 in4.3 mm 0.17 in4.3 mm
09:15 PM 40.2°F4.6°C 37.2°F2.9°C 89% 9.2 mph SW14.8 kmh SW 14.9 mph24.0 kmh 29.40 in995.6 mb - 0.17 in4.3 mm 0.17 in4.3 mm
09:20 PM 40.4°F4.7°C 37.4°F3.0°C 89% 8.0 mph SW12.9 kmh SW 10.3 mph16.6 kmh 29.40 in995.6 mb - 0.17 in4.3 mm 0.17 in4.3 mm
09:26 PM 40.5°F4.7°C 37.5°F3.1°C 89% 8.0 mph SW12.9 kmh SW 10.3 mph16.6 kmh 29.40 in995.6 mb - 0.17 in4.3 mm 0.17 in4.3 mm
09:31 PM 40.4°F4.7°C 37.7°F3.2°C 90% 6.9 mph WSW11.1 kmh WSW 9.2 mph14.8 kmh 29.40 in995.6 mb - 0.17 in4.3 mm 0.17 in4.3 mm
09:37 PM 40.4°F4.7°C 37.7°F3.2°C 90% 6.9 mph WSW11.1 kmh WSW 8.0 mph12.9 kmh 29.40 in995.6 mb - 0.17 in4.3 mm 0.17 in4.3 mm
09:43 PM 40.4°F4.7°C 37.7°F3.2°C 90% 5.8 mph SW9.3 kmh SW 9.2 mph14.8 kmh 29.40 in995.6 mb - 0.17 in4.3 mm 0.17 in4.3 mm
09:48 PM 40.4°F4.7°C 37.7°F3.2°C 90% 8.0 mph SW12.9 kmh SW 10.3 mph16.6 kmh 29.39 in995.3 mb - 0.17 in4.3 mm 0.17 in4.3 mm
09:54 PM 40.5°F4.7°C 37.8°F3.2°C 90% 5.8 mph WSW9.3 kmh WSW 9.2 mph14.8 kmh 29.39 in995.3 mb - 0.17 in4.3 mm 0.17 in4.3 mm
10:00 PM 40.5°F4.7°C 37.8°F3.2°C 90% 8.0 mph WSW12.9 kmh WSW 12.6 mph20.3 kmh 29.40 in995.6 mb - 0.17 in4.3 mm 0.17 in4.3 mm
10:05 PM 40.6°F4.8°C 37.9°F3.3°C 90% 6.9 mph WSW11.1 kmh WSW 13.8 mph22.2 kmh 29.39 in995.3 mb - 0.17 in4.3 mm 0.17 in4.3 mm
10:11 PM 40.7°F4.8°C 38.0°F3.3°C 90% 6.9 mph WSW11.1 kmh WSW 13.8 mph22.2 kmh 29.39 in995.3 mb - 0.17 in4.3 mm 0.17 in4.3 mm
10:16 PM 40.8°F4.9°C 37.8°F3.2°C 89% 9.2 mph WSW14.8 kmh WSW 13.8 mph22.2 kmh 29.39 in995.3 mb - 0.17 in4.3 mm 0.17 in4.3 mm
10:22 PM 40.9°F4.9°C 37.9°F3.3°C 89% 6.9 mph WSW11.1 kmh WSW 11.5 mph18.5 kmh 29.39 in995.3 mb - 0.17 in4.3 mm 0.17 in4.3 mm
10:28 PM 40.9°F4.9°C 37.9°F3.3°C 89% 6.9 mph SW11.1 kmh SW 11.5 mph18.5 kmh 29.39 in995.3 mb - 0.17 in4.3 mm 0.17 in4.3 mm
10:33 PM 40.8°F4.9°C 38.1°F3.4°C 90% 6.9 mph WSW11.1 kmh WSW 11.5 mph18.5 kmh 29.39 in995.3 mb - 0.18 in4.6 mm 0.18 in4.6 mm
10:39 PM 40.8°F4.9°C 38.1°F3.4°C 90% 6.9 mph WSW11.1 kmh WSW 8.0 mph12.9 kmh 29.38 in994.9 mb - 0.19 in4.8 mm 0.19 in4.8 mm
10:45 PM 40.7°F4.8°C 38.0°F3.3°C 90% 10.3 mph WSW16.6 kmh WSW 13.8 mph22.2 kmh 29.38 in994.9 mb - 0.20 in5.1 mm 0.20 in5.1 mm
10:50 PM 40.7°F4.8°C 38.3°F3.5°C 91% 9.2 mph WSW14.8 kmh WSW 12.6 mph20.3 kmh 29.38 in994.9 mb - 0.20 in5.1 mm 0.21 in5.3 mm
10:56 PM 40.6°F4.8°C 38.2°F3.4°C 91% 8.0 mph WSW12.9 kmh WSW 11.5 mph18.5 kmh 29.38 in994.9 mb - 0.22 in5.6 mm 0.22 in5.6 mm
11:01 PM 40.6°F4.8°C 38.2°F3.4°C 91% 5.8 mph WSW9.3 kmh WSW 8.0 mph12.9 kmh 29.38 in994.9 mb - 0.22 in5.6 mm 0.22 in5.6 mm
11:07 PM 40.6°F4.8°C 38.2°F3.4°C 91% 8.0 mph WSW12.9 kmh WSW 12.6 mph20.3 kmh 29.37 in994.6 mb - 0.22 in5.6 mm 0.22 in5.6 mm
11:13 PM 40.6°F4.8°C 38.1°F3.4°C 91% 5.8 mph WSW9.3 kmh WSW 8.0 mph12.9 kmh 29.37 in994.6 mb - 0.22 in5.6 mm 0.22 in5.6 mm
11:18 PM 40.6°F4.8°C 38.2°F3.4°C 91% 6.9 mph WSW11.1 kmh WSW 9.2 mph14.8 kmh 29.36 in994.2 mb - 0.23 in5.8 mm 0.23 in5.8 mm
11:24 PM 40.6°F4.8°C 38.1°F3.4°C 91% 5.8 mph WSW9.3 kmh WSW 10.3 mph16.6 kmh 29.36 in994.2 mb - 0.23 in5.8 mm 0.23 in5.8 mm
11:30 PM 40.5°F4.7°C 38.1°F3.4°C 91% 6.9 mph WNW11.1 kmh WNW 11.5 mph18.5 kmh 29.36 in994.2 mb - 0.23 in5.8 mm 0.23 in5.8 mm
11:35 PM 40.4°F4.7°C 38.3°F3.5°C 92% 5.8 mph WSW9.3 kmh WSW 5.8 mph9.3 kmh 29.36 in994.2 mb - 0.24 in6.1 mm 0.24 in6.1 mm
11:41 PM 40.3°F4.6°C 37.9°F3.3°C 91% 6.9 mph SW11.1 kmh SW 9.2 mph14.8 kmh 29.36 in994.2 mb - 0.24 in6.1 mm 0.24 in6.1 mm
11:46 PM 40.2°F4.6°C 37.8°F3.2°C 91% 8.0 mph SW12.9 kmh SW 11.5 mph18.5 kmh 29.36 in994.2 mb - 0.24 in6.1 mm 0.24 in6.1 mm
11:52 PM 40.2°F4.6°C 38.1°F3.4°C 92% 6.9 mph WSW11.1 kmh WSW 10.3 mph16.6 kmh 29.36 in994.2 mb - 0.24 in6.1 mm 0.24 in6.1 mm
11:58 PM 40.3°F4.6°C 38.2°F3.4°C 92% 6.9 mph WSW11.1 kmh WSW 11.5 mph18.5 kmh 29.36 in994.2 mb - 0.24 in6.1 mm 0.24 in6.1 mm